createdAt,value
2023-02-13T00:01:30.178Z,103134.44
2023-02-13T00:03:59.440Z,103128.28
2023-02-13T00:06:27.069Z,103125.09
2023-02-13T00:08:55.132Z,103130.84
2023-02-13T00:11:23.763Z,103133.03
2023-02-13T00:13:52.086Z,103134.44
2023-02-13T00:16:20.344Z,103133.97
2023-02-13T00:18:48.779Z,103132.91
2023-02-13T00:21:17.234Z,103128.56
2023-02-13T00:23:45.881Z,103129.06
2023-02-13T00:26:17.878Z,103137.66
2023-02-13T00:28:46.252Z,103129.66
2023-02-13T00:31:21.903Z,103129.38
2023-02-13T00:33:53.278Z,103134.84
2023-02-13T00:36:23.676Z,103134.44
2023-02-13T00:38:52.016Z,103140.91
2023-02-13T00:41:21.493Z,103132.75
2023-02-13T00:43:50.126Z,103131.91
2023-02-13T00:46:20.712Z,103131.41
2023-02-13T00:48:49.169Z,103138.00
2023-02-13T00:51:16.967Z,103136.00
2023-02-13T00:53:45.415Z,103132.75
2023-02-13T00:56:13.777Z,103137.91
2023-02-13T00:58:42.290Z,103133.25
2023-02-13T01:01:11.638Z,103132.31
2023-02-13T01:03:39.632Z,103137.44
2023-02-13T01:06:08.415Z,103136.97
2023-02-13T01:08:40.617Z,103135.59
2023-02-13T01:11:09.415Z,103136.44
2023-02-13T01:13:38.990Z,103139.38
2023-02-13T01:16:09.064Z,103136.72
2023-02-13T01:18:39.604Z,103134.97
2023-02-13T01:21:18.669Z,103133.06
2023-02-13T01:23:49.075Z,103133.38
2023-02-13T01:26:24.321Z,103138.88
2023-02-13T01:28:55.715Z,103137.66
2023-02-13T01:31:23.326Z,103133.06
2023-02-13T01:33:58.067Z,103137.34
2023-02-13T01:36:27.208Z,103133.06
2023-02-13T01:38:59.679Z,103133.38
2023-02-13T01:41:29.088Z,103129.47
2023-02-13T01:44:02.347Z,103123.59
2023-02-13T01:46:42.865Z,103125.81
2023-02-13T01:49:25.865Z,103119.31
2023-02-13T01:51:57.177Z,103129.59
2023-02-13T01:54:34.581Z,103124.22
2023-02-13T01:57:22.362Z,103112.22
2023-02-13T02:00:11.167Z,103123.31
2023-02-13T02:02:51.406Z,103120.41
2023-02-13T02:05:30.866Z,103121.72
2023-02-13T02:08:09.823Z,103116.28
2023-02-13T02:10:41.205Z,103117.03
2023-02-13T02:13:22.225Z,103113.94
2023-02-13T02:15:50.839Z,103125.59
2023-02-13T02:18:25.073Z,103124.38
2023-02-13T02:21:08.984Z,103122.63
2023-02-13T02:24:33.366Z,103121.19
2023-02-13T02:27:37.744Z,103128.59
2023-02-13T02:31:05.808Z,103124.16
2023-02-13T02:34:17.020Z,103132.47
2023-02-13T02:36:59.519Z,103134.47
2023-02-13T02:40:04.281Z,103138.28
2023-02-13T02:43:11.877Z,103128.97
2023-02-13T02:46:13.802Z,103136.81
2023-02-13T02:49:26.721Z,103139.50
2023-02-13T02:52:19.900Z,103144.56
2023-02-13T02:55:41.473Z,103139.00
2023-02-13T02:59:02.820Z,103136.53
2023-02-13T03:01:54.928Z,103136.13
2023-02-13T03:05:03.224Z,103133.38
2023-02-13T03:07:33.772Z,103135.31
2023-02-13T03:10:32.631Z,103141.25
2023-02-13T03:13:23.012Z,103142.13
2023-02-13T03:16:19.700Z,103130.56
2023-02-13T03:19:16.728Z,103144.41
2023-02-13T03:22:26.019Z,103146.09
2023-02-13T03:25:45.371Z,103144.41
2023-02-13T03:29:01.914Z,103136.81
2023-02-13T03:32:48.401Z,103135.13
2023-02-13T03:36:01.252Z,103144.47
2023-02-13T03:38:52.708Z,103138.97
2023-02-13T03:41:40.297Z,103130.31
2023-02-13T03:44:32.799Z,103133.06
2023-02-13T03:47:10.222Z,103130.78
2023-02-13T03:50:09.157Z,103135.59
2023-02-13T03:53:02.936Z,103129.09
2023-02-13T03:56:01.674Z,103136.06
2023-02-13T03:59:16.470Z,103138.34
2023-02-13T04:02:15.782Z,103132.38
2023-02-13T04:05:15.884Z,103126.72
2023-02-13T04:07:45.641Z,103127.75
2023-02-13T04:10:18.556Z,103125.13
2023-02-13T04:13:30.138Z,103126.84
2023-02-13T04:16:23.532Z,103128.56
2023-02-13T04:18:56.681Z,103129.88
2023-02-13T04:21:26.370Z,103126.81
2023-02-13T04:23:56.055Z,103123.88
2023-02-13T04:26:36.447Z,103121.59
2023-02-13T04:29:04.603Z,103126.94
2023-02-13T04:31:34.037Z,103124.63
2023-02-13T04:34:01.405Z,103134.94
2023-02-13T04:36:31.504Z,103118.06
2023-02-13T04:39:01.235Z,103117.19
2023-02-13T04:41:31.328Z,103118.28
2023-02-13T04:44:01.312Z,103112.38
2023-02-13T04:46:31.349Z,103112.63
2023-02-13T04:49:01.588Z,103116.44
2023-02-13T04:51:31.630Z,103111.78
2023-02-13T04:54:01.659Z,103112.16
2023-02-13T04:56:31.676Z,103107.38
2023-02-13T04:59:01.721Z,103107.63
2023-02-13T05:01:31.769Z,103099.44
2023-02-13T05:04:01.901Z,103108.53
2023-02-13T05:06:31.969Z,103102.84
2023-02-13T05:09:01.962Z,103113.00
2023-02-13T05:11:31.962Z,103111.78
2023-02-13T05:14:02.000Z,103114.75
2023-02-13T05:16:31.547Z,103110.72
2023-02-13T05:19:01.609Z,103110.94
2023-02-13T05:21:50.492Z,103112.91
2023-02-13T05:24:20.773Z,103126.25
2023-02-13T05:26:50.585Z,103120.13
2023-02-13T05:29:19.314Z,103115.94
2023-02-13T05:31:53.766Z,103113.41
2023-02-13T05:34:26.451Z,103116.56
2023-02-13T05:36:56.770Z,103112.09
2023-02-13T05:39:26.832Z,103115.09
2023-02-13T05:41:53.862Z,103123.34
2023-02-13T05:44:21.089Z,103123.91
2023-02-13T05:46:53.284Z,103127.66
2023-02-13T05:49:23.108Z,103131.25
2023-02-13T05:51:53.080Z,103129.16
2023-02-13T05:54:23.160Z,103133.00
2023-02-13T05:56:53.243Z,103138.72
2023-02-13T05:59:24.133Z,103144.81
2023-02-13T06:01:51.955Z,103139.09
2023-02-13T06:04:20.197Z,103140.28
2023-02-13T06:06:48.668Z,103141.72
2023-02-13T06:09:17.104Z,103151.69
2023-02-13T06:11:45.731Z,103151.50
2023-02-13T06:14:14.751Z,103154.94
2023-02-13T06:16:43.009Z,103153.91
2023-02-13T06:19:11.465Z,103151.84
2023-02-13T06:21:39.952Z,103155.19
2023-02-13T06:24:08.894Z,103159.81
2023-02-13T06:26:37.035Z,103161.25
2023-02-13T06:29:06.768Z,103158.13
2023-02-13T06:31:37.050Z,103164.28
2023-02-13T06:34:05.289Z,103161.38
2023-02-13T06:36:34.772Z,103157.38
2023-02-13T06:39:02.415Z,103162.03
2023-02-13T06:41:30.700Z,103161.44
2023-02-13T06:43:59.106Z,103158.47
2023-02-13T06:46:27.630Z,103166.88
2023-02-13T06:48:55.886Z,103172.38
2023-02-13T06:51:24.328Z,103169.41
2023-02-13T06:53:52.685Z,103170.47
2023-02-13T06:56:21.243Z,103167.91
2023-02-13T06:58:49.540Z,103169.41
2023-02-13T07:01:18.060Z,103168.53
2023-02-13T07:03:47.790Z,103175.69
2023-02-13T07:06:21.306Z,103171.47
2023-02-13T07:08:55.312Z,103172.94
2023-02-13T07:11:25.809Z,103172.25
2023-02-13T07:13:55.899Z,103175.63
2023-02-13T07:16:26.071Z,103171.81
2023-02-13T07:18:56.123Z,103176.44
2023-02-13T07:21:26.142Z,103179.81
2023-02-13T07:23:56.169Z,103185.66
2023-02-13T07:26:23.974Z,103176.13
2023-02-13T07:29:05.785Z,103174.25
2023-02-13T07:31:40.889Z,103178.66
2023-02-13T07:34:10.697Z,103183.25
2023-02-13T07:36:38.987Z,103177.06
2023-02-13T07:39:07.473Z,103178.78
2023-02-13T07:41:35.818Z,103180.69
2023-02-13T07:44:04.286Z,103181.47
2023-02-13T07:46:32.624Z,103185.66
2023-02-13T07:49:01.030Z,103186.50
2023-02-13T07:51:29.735Z,103187.28
2023-02-13T07:53:57.926Z,103186.47
2023-02-13T07:56:26.296Z,103183.94
2023-02-13T07:58:54.809Z,103191.72
2023-02-13T08:01:23.202Z,103188.75
2023-02-13T08:03:52.136Z,103183.63
2023-02-13T08:06:22.980Z,103191.59
2023-02-13T08:09:10.363Z,103186.09
2023-02-13T08:11:55.530Z,103183.09
2023-02-13T08:14:27.707Z,103177.59
2023-02-13T08:17:01.683Z,103190.91
2023-02-13T08:19:31.317Z,103195.13
2023-02-13T08:22:01.577Z,103200.41
2023-02-13T08:24:33.575Z,103194.03
2023-02-13T08:27:03.176Z,103196.75
2023-02-13T08:29:34.635Z,103202.59
2023-02-13T08:32:05.006Z,103187.53
2023-02-13T08:34:34.954Z,103202.78
2023-02-13T08:37:05.382Z,103203.63
2023-02-13T08:39:35.296Z,103201.78
2023-02-13T08:42:11.161Z,103201.19
2023-02-13T08:44:42.720Z,103202.84
2023-02-13T08:47:12.874Z,103201.53
2023-02-13T08:49:41.108Z,103199.66
2023-02-13T08:52:09.474Z,103201.94
2023-02-13T08:54:38.046Z,103197.03
2023-02-13T08:57:06.348Z,103193.22
2023-02-13T08:59:34.866Z,103199.88
2023-02-13T09:02:03.181Z,103193.97
2023-02-13T09:04:31.635Z,103198.69
2023-02-13T09:07:00.010Z,103192.25
2023-02-13T09:09:29.020Z,103196.22
2023-02-13T09:11:58.706Z,103196.94
2023-02-13T09:14:28.509Z,103200.69
2023-02-13T09:16:58.440Z,103195.09
2023-02-13T09:19:28.267Z,103206.69
2023-02-13T09:21:58.049Z,103203.81
2023-02-13T09:24:28.038Z,103204.44
2023-02-13T09:26:57.856Z,103211.22
2023-02-13T09:29:31.372Z,103215.47
2023-02-13T09:32:01.456Z,103208.72
2023-02-13T09:34:31.534Z,103209.94
2023-02-13T09:37:01.156Z,103213.44
2023-02-13T09:39:30.884Z,103215.69
2023-02-13T09:42:02.477Z,103219.34
2023-02-13T09:45:05.134Z,103220.13
2023-02-13T09:47:42.587Z,103216.31
2023-02-13T09:50:16.914Z,103206.81
2023-02-13T09:52:52.653Z,103217.41
2023-02-13T09:55:29.740Z,103214.53
2023-02-13T09:58:27.406Z,103209.84
2023-02-13T10:01:06.194Z,103209.25
2023-02-13T10:04:11.784Z,103208.75
2023-02-13T10:06:54.518Z,103206.97
2023-02-13T10:09:50.025Z,103206.38
2023-02-13T10:12:37.666Z,103202.16
2023-02-13T10:15:42.110Z,103205.53
2023-02-13T10:18:35.457Z,103203.72
2023-02-13T10:21:10.142Z,103207.09
2023-02-13T10:23:57.444Z,103212.47
2023-02-13T10:26:45.667Z,103206.38
2023-02-13T10:30:05.576Z,103204.66
2023-02-13T10:33:22.064Z,103211.66
2023-02-13T10:36:10.072Z,103205.41
2023-02-13T10:39:04.996Z,103202.03
2023-02-13T10:42:25.826Z,103194.38
2023-02-13T10:45:49.775Z,103199.66
2023-02-13T10:48:50.880Z,103194.03
2023-02-13T10:51:58.737Z,103190.16
2023-02-13T10:55:01.627Z,103182.94
2023-02-13T10:58:27.765Z,103181.00
2023-02-13T11:01:13.398Z,103184.97
2023-02-13T11:03:45.530Z,103174.88
2023-02-13T11:06:20.287Z,103182.81
2023-02-13T11:08:50.492Z,103175.34
2023-02-13T11:11:40.484Z,103169.00
2023-02-13T11:14:28.213Z,103174.44
2023-02-13T11:17:19.170Z,103170.69
2023-02-13T11:19:56.457Z,103171.06
2023-02-13T11:22:39.512Z,103176.81
2023-02-13T11:25:31.701Z,103162.31
2023-02-13T11:28:21.243Z,103168.81
2023-02-13T11:30:50.111Z,103161.84
2023-02-13T11:33:28.677Z,103172.06
2023-02-13T11:36:33.546Z,103155.22
2023-02-13T11:39:26.504Z,103162.56
2023-02-13T11:41:56.550Z,103152.78
2023-02-13T11:44:32.537Z,103159.38
2023-02-13T11:47:05.757Z,103160.94
2023-02-13T11:49:39.561Z,103158.75
2023-02-13T11:52:34.713Z,103155.31
2023-02-13T11:55:34.210Z,103155.41
2023-02-13T11:58:10.666Z,103143.53
2023-02-13T12:00:43.010Z,103143.22
2023-02-13T12:03:22.017Z,103149.44
2023-02-13T12:06:09.165Z,103150.75
2023-02-13T12:08:45.519Z,103146.81
2023-02-13T12:11:49.910Z,103144.38
2023-02-13T12:14:27.845Z,103145.34
2023-02-13T12:17:25.482Z,103142.84
2023-02-13T12:20:02.329Z,103148.00
2023-02-13T12:23:17.888Z,103145.53
2023-02-13T12:26:30.876Z,103143.09
2023-02-13T12:29:51.484Z,103149.06
2023-02-13T12:32:26.824Z,103145.09
2023-02-13T12:35:27.677Z,103142.94
2023-02-13T12:38:41.755Z,103147.03
2023-02-13T12:41:25.858Z,103146.31
2023-02-13T12:44:21.504Z,103149.28
2023-02-13T12:47:27.160Z,103146.81
2023-02-13T12:50:24.817Z,103145.09
2023-02-13T12:53:48.679Z,103145.47
2023-02-13T12:57:02.367Z,103149.94
2023-02-13T13:00:22.167Z,103144.78
2023-02-13T13:03:30.489Z,103142.63
2023-02-13T13:06:52.683Z,103144.63
2023-02-13T13:09:58.154Z,103132.34
2023-02-13T13:12:59.344Z,103136.22
2023-02-13T13:16:15.788Z,103138.66
2023-02-13T13:19:19.953Z,103137.69
2023-02-13T13:22:18.080Z,103124.47
2023-02-13T13:24:59.446Z,103132.88
2023-02-13T13:27:46.969Z,103125.31
2023-02-13T13:30:33.813Z,103130.84
2023-02-13T13:33:24.409Z,103135.31
2023-02-13T13:36:42.995Z,103134.97
2023-02-13T13:40:16.492Z,103130.16
2023-02-13T13:43:03.211Z,103129.19
2023-02-13T13:46:01.858Z,103125.59
2023-02-13T13:49:35.134Z,103127.25
2023-02-13T13:52:40.087Z,103131.72
2023-02-13T13:55:56.368Z,103126.22
2023-02-13T13:58:45.636Z,103128.72
2023-02-13T14:01:32.296Z,103130.41
2023-02-13T14:04:32.433Z,103133.41
2023-02-13T14:07:02.364Z,103133.41
2023-02-13T14:09:44.262Z,103117.34
2023-02-13T14:12:50.924Z,103110.03
2023-02-13T14:15:42.624Z,103112.44
2023-02-13T14:18:27.390Z,103113.13
2023-02-13T14:21:03.819Z,103114.59
2023-02-13T14:23:52.704Z,103105.44
2023-02-13T14:26:37.477Z,103099.47
2023-02-13T14:29:28.554Z,103106.41
2023-02-13T14:32:17.121Z,103107.50
2023-02-13T14:34:59.914Z,103094.75
2023-02-13T14:38:08.227Z,103088.41
2023-02-13T14:40:47.389Z,103085.53
2023-02-13T14:44:03.232Z,103096.56
2023-02-13T14:46:47.970Z,103094.25
2023-02-13T14:49:40.712Z,103078.09
2023-02-13T14:52:43.174Z,103080.03
2023-02-13T14:55:41.063Z,103081.72
2023-02-13T14:58:32.520Z,103092.41
2023-02-13T15:01:34.900Z,103083.53
2023-02-13T15:04:26.218Z,103081.47
2023-02-13T15:07:05.177Z,103076.81
2023-02-13T15:09:45.328Z,103067.44
2023-02-13T15:12:37.812Z,103070.81
2023-02-13T15:15:42.298Z,103069.44
2023-02-13T15:18:27.983Z,103073.53
2023-02-13T15:21:01.848Z,103083.97
2023-02-13T15:23:34.750Z,103083.59
2023-02-13T15:26:09.804Z,103082.03
2023-02-13T15:28:39.857Z,103068.41
2023-02-13T15:31:25.099Z,103066.69
2023-02-13T15:33:55.209Z,103050.88
2023-02-13T15:36:34.408Z,103059.13
2023-02-13T15:39:11.052Z,103050.16
2023-02-13T15:41:52.695Z,103045.69
2023-02-13T15:44:33.014Z,103054.00
2023-02-13T15:47:43.145Z,103041.75
2023-02-13T15:50:36.198Z,103050.25
2023-02-13T15:53:18.106Z,103029.75
2023-02-13T15:56:04.142Z,103030.72
2023-02-13T15:58:35.629Z,103043.78
2023-02-13T16:01:10.295Z,103042.78
2023-02-13T16:03:45.857Z,103037.50
2023-02-13T16:06:24.192Z,103042.69
2023-02-13T16:09:00.539Z,103036.44
2023-02-13T16:11:40.436Z,103053.94
2023-02-13T16:14:31.930Z,103049.97
2023-02-13T16:17:23.063Z,103042.19
2023-02-13T16:19:57.184Z,103050.34
2023-02-13T16:23:02.488Z,103044.69
2023-02-13T16:25:41.544Z,103045.63
2023-02-13T16:28:26.488Z,103058.09
2023-02-13T16:31:04.884Z,103069.59
2023-02-13T16:33:42.361Z,103069.59
2023-02-13T16:36:12.270Z,103062.31
2023-02-13T16:38:47.514Z,103064.31
2023-02-13T16:41:22.133Z,103064.41
2023-02-13T16:44:02.715Z,103067.03
2023-02-13T16:46:52.461Z,103062.75
2023-02-13T16:49:29.240Z,103062.13
2023-02-13T16:52:28.374Z,103061.66
2023-02-13T16:55:06.351Z,103060.72
2023-02-13T16:57:36.399Z,103058.78
2023-02-13T17:00:25.469Z,103058.50
2023-02-13T17:02:55.703Z,103064.59
2023-02-13T17:05:29.437Z,103068.91
2023-02-13T17:08:01.701Z,103065.53
2023-02-13T17:10:35.909Z,103065.75
2023-02-13T17:13:19.368Z,103064.31
2023-02-13T17:15:50.461Z,103067.28
2023-02-13T17:18:19.993Z,103070.75
2023-02-13T17:20:50.313Z,103071.84
2023-02-13T17:23:25.341Z,103081.06
2023-02-13T17:25:55.648Z,103092.56
2023-02-13T17:28:29.270Z,103082.38
2023-02-13T17:31:00.841Z,103077.59
2023-02-13T17:33:34.972Z,103079.09
2023-02-13T17:36:06.169Z,103086.56
2023-02-13T17:38:35.767Z,103074.94
2023-02-13T17:41:15.537Z,103071.84
2023-02-13T17:43:45.126Z,103073.06
2023-02-13T17:46:12.413Z,103082.16
2023-02-13T17:48:40.600Z,103081.63
2023-02-13T17:51:14.734Z,103080.41
2023-02-13T17:53:44.574Z,103079.59
2023-02-13T17:56:14.768Z,103087.47
2023-02-13T17:58:44.474Z,103083.25
2023-02-13T18:01:14.488Z,103092.78
2023-02-13T18:03:44.136Z,103087.28
2023-02-13T18:06:15.955Z,103090.22
2023-02-13T18:08:45.997Z,103089.59
2023-02-13T18:11:15.718Z,103084.00
2023-02-13T18:13:48.093Z,103079.50
2023-02-13T18:16:16.500Z,103079.09
2023-02-13T18:18:44.307Z,103085.53
2023-02-13T18:21:13.624Z,103088.75
2023-02-13T18:23:41.220Z,103075.44
2023-02-13T18:26:11.007Z,103077.97
2023-02-13T18:28:38.206Z,103082.16
2023-02-13T18:31:11.085Z,103090.03
2023-02-13T18:33:41.018Z,103089.44
2023-02-13T18:36:12.027Z,103087.16
2023-02-13T18:38:41.159Z,103088.06
2023-02-13T18:41:11.040Z,103092.03
2023-02-13T18:43:39.689Z,103091.88
2023-02-13T18:46:07.951Z,103088.16
2023-02-13T18:48:36.458Z,103083.69
2023-02-13T18:51:05.371Z,103080.13
2023-02-13T18:53:33.132Z,103083.72
2023-02-13T18:56:06.718Z,103080.47
2023-02-13T18:58:36.759Z,103076.34
2023-02-13T19:01:19.698Z,103074.31
2023-02-13T19:03:53.272Z,103080.63
2023-02-13T19:06:26.649Z,103076.44
2023-02-13T19:08:58.289Z,103081.84
2023-02-13T19:11:28.383Z,103080.63
2023-02-13T19:14:00.495Z,103078.50
2023-02-13T19:16:35.021Z,103073.22
2023-02-13T19:19:08.158Z,103069.63
2023-02-13T19:21:39.656Z,103077.19
2023-02-13T19:24:15.366Z,103067.88
2023-02-13T19:26:45.556Z,103078.41
2023-02-13T19:29:15.659Z,103080.94
2023-02-13T19:31:45.926Z,103075.22
2023-02-13T19:34:16.080Z,103077.97
2023-02-13T19:36:46.157Z,103079.63
2023-02-13T19:39:16.958Z,103084.91
2023-02-13T19:41:47.002Z,103082.25
2023-02-13T19:44:17.362Z,103088.19
2023-02-13T19:46:47.522Z,103095.84
2023-02-13T19:49:19.032Z,103094.41
2023-02-13T19:51:49.083Z,103094.31
2023-02-13T19:54:19.213Z,103101.66
2023-02-13T19:56:49.434Z,103096.38
2023-02-13T19:59:19.553Z,103105.75
2023-02-13T20:01:49.626Z,103097.47
2023-02-13T20:04:19.761Z,103098.50
2023-02-13T20:06:50.805Z,103097.47
2023-02-13T20:09:20.886Z,103097.47
2023-02-13T20:11:51.235Z,103103.00
2023-02-13T20:14:21.982Z,103093.63
2023-02-13T20:16:52.068Z,103096.88
2023-02-13T20:19:22.847Z,103098.19
2023-02-13T20:21:53.240Z,103110.66
2023-02-13T20:24:23.303Z,103107.53
2023-02-13T20:26:56.479Z,103112.44
2023-02-13T20:29:26.547Z,103112.28
2023-02-13T20:31:56.721Z,103113.50
2023-02-13T20:34:25.203Z,103118.03
2023-02-13T20:36:53.533Z,103122.78
2023-02-13T20:39:21.984Z,103119.78
2023-02-13T20:41:51.665Z,103122.69
2023-02-13T20:44:21.051Z,103127.56
2023-02-13T20:46:49.040Z,103127.22
2023-02-13T20:49:21.866Z,103130.19
2023-02-13T20:51:51.330Z,103126.44
2023-02-13T20:54:21.237Z,103129.50
2023-02-13T20:56:51.066Z,103133.34
2023-02-13T20:59:20.742Z,103140.59
2023-02-13T21:01:50.869Z,103139.75
2023-02-13T21:04:21.127Z,103138.06
2023-02-13T21:06:51.136Z,103147.63
2023-02-13T21:09:20.982Z,103145.28
2023-02-13T21:11:50.851Z,103141.50
2023-02-13T21:14:20.813Z,103139.66
2023-02-13T21:16:49.171Z,103147.25
2023-02-13T21:19:20.299Z,103145.50
2023-02-13T21:21:49.073Z,103149.38
2023-02-13T21:24:22.839Z,103149.22
2023-02-13T21:26:53.029Z,103143.72
2023-02-13T21:29:21.584Z,103156.59
2023-02-13T21:31:51.249Z,103149.22
2023-02-13T21:34:19.410Z,103156.19
2023-02-13T21:36:47.745Z,103158.72
2023-02-13T21:39:16.161Z,103152.59
2023-02-13T21:41:46.120Z,103149.16
2023-02-13T21:44:16.883Z,103150.25
2023-02-13T21:46:47.457Z,103155.66
2023-02-13T21:49:18.946Z,103147.84
2023-02-13T21:51:48.114Z,103151.91
2023-02-13T21:54:17.529Z,103155.34
2023-02-13T21:56:47.360Z,103156.03
2023-02-13T21:59:19.172Z,103161.63
2023-02-13T22:01:50.402Z,103154.75
2023-02-13T22:04:19.197Z,103158.56
2023-02-13T22:06:52.942Z,103160.31
2023-02-13T22:09:22.852Z,103155.31
2023-02-13T22:11:56.969Z,103153.88
2023-02-13T22:14:24.864Z,103155.78
2023-02-13T22:16:53.140Z,103151.59
2023-02-13T22:19:23.691Z,103155.41
2023-02-13T22:21:53.422Z,103155.19
2023-02-13T22:24:20.676Z,103165.34
2023-02-13T22:26:50.376Z,103156.69
2023-02-13T22:29:23.077Z,103156.47
2023-02-13T22:31:52.549Z,103174.09
2023-02-13T22:34:22.509Z,103174.78
2023-02-13T22:36:52.459Z,103170.59
2023-02-13T22:39:22.129Z,103175.91
2023-02-13T22:41:56.506Z,103175.91
2023-02-13T22:44:25.210Z,103176.75
2023-02-13T22:46:54.956Z,103178.22
2023-02-13T22:49:24.953Z,103175.91
2023-02-13T22:51:54.679Z,103171.72
2023-02-13T22:54:24.444Z,103172.78
2023-02-13T22:56:54.248Z,103170.25
2023-02-13T22:59:24.069Z,103177.06
2023-02-13T23:01:53.946Z,103176.19
2023-02-13T23:04:23.787Z,103167.56
2023-02-13T23:06:53.579Z,103174.50
2023-02-13T23:09:23.675Z,103167.94
2023-02-13T23:12:22.470Z,103166.88
2023-02-13T23:14:52.494Z,103168.41
2023-02-13T23:17:41.256Z,103170.75
2023-02-13T23:20:11.215Z,103169.03
2023-02-13T23:22:40.358Z,103164.81
2023-02-13T23:25:09.270Z,103166.94
2023-02-13T23:27:39.756Z,103170.97
2023-02-13T23:30:13.658Z,103168.81
2023-02-13T23:32:43.954Z,103173.91
2023-02-13T23:35:14.046Z,103169.22
2023-02-13T23:37:44.280Z,103174.34
2023-02-13T23:40:17.783Z,103177.31
2023-02-13T23:42:46.297Z,103178.00
2023-02-13T23:45:14.298Z,103171.03
2023-02-13T23:47:42.608Z,103184.75
2023-02-13T23:50:11.493Z,103179.25
2023-02-13T23:52:39.542Z,103180.34
2023-02-13T23:55:08.205Z,103168.72
2023-02-13T23:57:36.419Z,103181.81
